Time;durP1;ratioP1;P1;durP2;ratioP2;P2;SDS_P1;SDS_P2;PMS_P1;PMS_P2;Temp;Humidity;BMP_temperature;BMP_pressure;BME280_temperature;BME280_humidity;BME280_pressure;Samples;Min_cycle;Max_cycle;Signal;HPM_P1;HPM_P2
2022/06/10 04:29:16;;;;;;;0.20;0.10;;;18.70;99.90;;;;;;21289075;27;20601;-71
2022/06/10 04:39:20;;;;;;;0.20;0.00;;;18.80;99.90;;;;;;21288902;27;20211;-73
2022/06/10 04:49:26;;;;;;;0.20;0.00;;;18.80;99.90;;;;;;21286190;27;20282;-74
2022/06/10 04:59:29;;;;;;;0.20;0.10;;;18.90;99.90;;;;;;21286557;27;20226;-72
2022/06/10 05:09:35;;;;;;;0.20;0.00;;;18.90;99.90;;;;;;21180283;28;20278;-72
2022/06/10 05:19:39;;;;;;;0.20;0.00;;;19.30;99.90;;;;;;21199736;28;20251;-72
2022/06/10 05:29:44;;;;;;;0.20;0.00;;;19.80;99.90;;;;;;21126511;28;20291;-71
2022/06/10 05:39:48;;;;;;;0.20;0.00;;;20.10;99.90;;;;;;21141244;28;20203;-72
2022/06/10 05:49:55;;;;;;;0.20;0.10;;;20.50;99.90;;;;;;21137290;28;20284;-72
2022/06/10 05:59:59;;;;;;;0.20;0.10;;;20.80;99.90;;;;;;21132120;28;20259;-73
2022/06/10 06:10:06;;;;;;;0.20;0.00;;;21.10;99.90;;;;;;21131494;28;20289;-72
2022/06/10 06:20:13;;;;;;;0.20;0.00;;;21.50;99.90;;;;;;21133521;28;20235;-74
2022/06/10 06:30:22;;;;;;;0.20;0.00;;;21.50;99.90;;;;;;21134244;28;20224;-73
2022/06/10 06:40:26;;;;;;;0.20;0.00;;;22.00;99.90;;;;;;21132923;28;20196;-73
2022/06/10 06:50:34;;;;;;;0.20;0.00;;;21.90;99.90;;;;;;21133448;28;20251;-73
2022/06/10 07:00:38;;;;;;;0.20;0.00;;;21.80;99.90;;;;;;21129796;28;20264;-74
2022/06/10 07:10:44;;;;;;;0.20;0.00;;;22.10;99.90;;;;;;21131600;28;20227;-72
2022/06/10 07:20:48;;;;;;;0.20;0.00;;;21.90;99.90;;;;;;21128346;28;20273;-73
2022/06/10 07:30:54;;;;;;;0.20;0.00;;;22.20;99.90;;;;;;21129756;28;20250;-72
2022/06/10 07:51:21;;;;;;;0.20;0.00;;;22.40;99.90;;;;;;21126504;28;20215;-73
2022/06/10 08:01:25;;;;;;;0.20;0.00;;;22.50;99.90;;;;;;21126722;28;20268;-72
2022/06/10 08:11:31;;;;;;;0.20;0.00;;;22.60;99.90;;;;;;21125133;28;20230;-73
2022/06/10 08:31:54;;;;;;;0.20;0.00;;;23.00;99.90;;;;;;21081062;28;20248;-74
2022/06/10 08:42:14;;;;;;;0.20;0.00;;;23.10;99.90;;;;;;21126542;28;20259;-72
2022/06/10 08:52:28;;;;;;;0.20;0.00;;;23.20;99.90;;;;;;21127521;28;20283;-72
2022/06/10 09:02:37;;;;;;;0.20;0.00;;;23.50;99.90;;;;;;21172244;28;20278;-72
2022/06/10 09:13:05;;;;;;;0.20;0.00;;;23.60;99.90;;;;;;21219153;28;20302;-71
2022/06/10 09:23:17;;;;;;;0.20;0.00;;;23.80;99.90;;;;;;21223457;28;20215;-72
2022/06/10 09:33:30;;;;;;;0.20;0.00;;;23.80;99.90;;;;;;21223314;27;20239;-74
2022/06/10 09:43:55;;;;;;;0.20;0.10;;;23.90;99.90;;;;;;21219434;28;20203;-72
2022/06/10 09:54:14;;;;;;;0.20;0.20;;;24.40;99.90;;;;;;21221211;28;20226;-71
2022/06/10 10:04:46;;;;;;;0.20;0.00;;;24.60;99.90;;;;;;21177028;28;20208;-72
2022/06/10 10:14:59;;;;;;;0.20;0.00;;;24.80;99.90;;;;;;21133852;28;20291;-71
2022/06/10 10:25:04;;;;;;;0.20;0.00;;;24.80;99.90;;;;;;21133586;28;20413;-73
2022/06/10 10:35:18;;;;;;;0.20;0.10;;;25.10;99.90;;;;;;21132697;28;20303;-73
2022/06/10 10:45:26;;;;;;;0.20;0.00;;;25.20;99.90;;;;;;21132369;28;20192;-73
2022/06/10 10:55:36;;;;;;;0.20;0.00;;;25.60;99.90;;;;;;21132942;28;20701;-72
2022/06/10 11:05:49;;;;;;;0.20;0.00;;;25.80;99.90;;;;;;21130031;28;20255;-73
2022/06/10 11:15:55;;;;;;;0.20;0.00;;;26.10;99.90;;;;;;21127680;28;20242;-73
2022/06/10 11:26:11;;;;;;;0.20;0.00;;;26.90;99.90;;;;;;21128078;28;20239;-77
2022/06/10 11:36:26;;;;;;;0.20;0.00;;;27.60;99.90;;;;;;21129087;28;20246;-73
2022/06/10 11:46:37;;;;;;;0.20;0.00;;;28.30;99.90;;;;;;21127701;28;20200;-73
2022/06/10 12:07:16;;;;;;;0.20;0.00;;;29.00;99.90;;;;;;21124488;28;20196;-73
2022/06/10 12:17:28;;;;;;;0.20;0.10;;;29.30;99.90;;;;;;21126119;28;20314;-71
2022/06/10 12:27:40;;;;;;;0.20;0.00;;;29.30;99.90;;;;;;21125064;28;20287;-73
2022/06/10 12:37:49;;;;;;;0.20;0.00;;;29.90;99.90;;;;;;21136117;28;20287;-74
2022/06/10 12:47:56;;;;;;;0.20;0.00;;;31.10;99.90;;;;;;21139134;28;20215;-73
2022/06/10 12:58:03;;;;;;;1.02;1.02;;;31.30;99.90;;;;;;21140414;28;20220;-76
2022/06/10 13:08:48;;;;;;;0.20;0.00;;;30.40;99.90;;;;;;21141446;28;20202;-75
2022/06/10 13:18:59;;;;;;;0.20;0.00;;;30.30;99.90;;;;;;21138478;28;20228;-70
2022/06/10 13:29:12;;;;;;;0.20;0.00;;;31.30;99.90;;;;;;21135320;28;20243;-71
2022/06/10 13:39:26;;;;;;;0.20;0.00;;;30.80;99.90;;;;;;21136284;28;20287;-71
2022/06/10 13:49:46;;;;;;;0.20;0.00;;;31.30;99.90;;;;;;21138131;28;20277;-73
2022/06/10 14:00:00;;;;;;;0.20;0.00;;;31.70;99.90;;;;;;21133922;28;20215;-70
2022/06/10 14:10:15;;;;;;;0.20;0.00;;;31.30;99.90;;;;;;21136631;28;20196;-70
2022/06/10 14:20:23;;;;;;;0.20;0.00;;;31.50;99.90;;;;;;21111948;28;20271;-71
2022/06/10 14:30:39;;;;;;;0.20;0.00;;;32.40;99.90;;;;;;21130211;28;20220;-71
2022/06/10 14:40:56;;;;;;;0.20;0.00;;;32.40;99.90;;;;;;21131865;28;20222;-73
2022/06/10 14:51:19;;;;;;;0.20;0.00;;;32.10;99.90;;;;;;21130291;28;20244;-77
2022/06/10 15:01:30;;;;;;;0.20;0.00;;;31.70;99.90;;;;;;21127556;28;20222;-72
2022/06/10 15:11:34;;;;;;;0.20;0.00;;;31.70;99.90;;;;;;21125431;28;20219;-71
2022/06/10 15:21:41;;;;;;;0.20;0.00;;;31.70;99.90;;;;;;21124686;28;20292;-72
2022/06/10 15:31:45;;;;;;;0.20;0.00;;;31.40;99.90;;;;;;21126218;28;20246;-72
2022/06/10 15:41:51;;;;;;;0.20;0.00;;;31.80;99.90;;;;;;21124035;28;20188;-72
2022/06/10 15:51:57;;;;;;;0.20;0.00;;;31.20;99.90;;;;;;21122762;28;20247;-72
2022/06/10 16:02:03;;;;;;;0.20;0.00;;;31.90;99.90;;;;;;21123343;28;20188;-72
2022/06/10 16:22:35;;;;;;;0.20;0.00;;;31.80;99.90;;;;;;21121320;28;20228;-72
2022/06/10 16:32:40;;;;;;;0.20;0.00;;;31.20;99.90;;;;;;21121735;28;20247;-72
2022/06/10 16:42:49;;;;;;;0.20;0.00;;;31.10;99.90;;;;;;21117005;28;20180;-73
2022/06/10 16:52:55;;;;;;;0.20;0.00;;;30.40;99.90;;;;;;21120429;28;20295;-71
2022/06/10 17:03:03;;;;;;;0.20;0.00;;;30.40;99.90;;;;;;21121436;28;20215;-72
2022/06/10 17:13:12;;;;;;;0.20;0.00;;;31.10;99.90;;;;;;21128802;28;20224;-72
2022/06/10 17:23:21;;;;;;;0.20;0.00;;;30.90;99.90;;;;;;21141606;28;20219;-72
2022/06/10 17:33:31;;;;;;;0.20;0.00;;;30.20;99.90;;;;;;21166892;28;20321;-73
2022/06/10 17:43:40;;;;;;;0.20;0.00;;;29.10;99.90;;;;;;21228476;28;20222;-73
2022/06/10 17:53:45;;;;;;;0.20;0.03;;;28.90;99.90;;;;;;21210778;28;20251;-74
2022/06/10 18:03:50;;;;;;;0.20;0.00;;;30.00;99.90;;;;;;21229146;28;20207;-72
2022/06/10 18:24:24;;;;;;;0.20;0.00;;;29.20;99.90;;;;;;21224724;28;20262;-70
2022/06/10 18:34:27;;;;;;;0.20;0.10;;;29.40;99.90;;;;;;21194549;28;20224;-73
2022/06/10 18:44:34;;;;;;;0.20;0.00;;;28.70;99.90;;;;;;21138028;28;20192;-73
2022/06/10 18:54:41;;;;;;;0.20;0.00;;;28.20;99.90;;;;;;21136541;28;20272;-72
2022/06/10 19:04:49;;;;;;;0.20;0.10;;;27.00;99.90;;;;;;21133779;28;20256;-73
2022/06/10 19:14:53;;;;;;;0.20;0.00;;;25.80;99.90;;;;;;21136421;28;20284;-72
2022/06/10 19:24:58;;;;;;;0.20;0.00;;;25.50;99.90;;;;;;21132491;28;20223;-73
2022/06/10 19:35:06;;;;;;;0.20;0.00;;;25.30;99.90;;;;;;21132533;28;20283;-73
2022/06/10 19:45:16;;;;;;;0.20;0.00;;;25.30;99.90;;;;;;21130764;28;20216;-72
2022/06/10 19:55:25;;;;;;;0.20;0.00;;;25.30;99.90;;;;;;21127313;28;20239;-74
2022/06/10 20:05:34;;;;;;;0.20;0.00;;;25.20;99.90;;;;;;21128043;28;20184;-73
2022/06/10 20:15:43;;;;;;;0.20;0.00;;;24.80;99.90;;;;;;21203695;22;20260;-72
2022/06/10 20:25:52;;;;;;;0.20;0.00;;;24.60;99.90;;;;;;21046493;28;20208;-73
2022/06/10 20:36:00;;;;;;;0.20;0.00;;;24.30;99.90;;;;;;21045876;28;20285;-72
2022/06/10 20:46:08;;;;;;;0.20;0.00;;;24.30;99.90;;;;;;21048053;28;20189;-74
2022/06/10 20:56:14;;;;;;;0.20;0.00;;;23.90;99.90;;;;;;21056930;28;20236;-73
2022/06/10 21:16:51;;;;;;;0.20;0.00;;;23.60;99.90;;;;;;21062419;28;20287;-74
2022/06/10 21:26:57;;;;;;;0.20;0.00;;;23.60;99.90;;;;;;21062722;28;20216;-74
2022/06/10 21:37:04;;;;;;;0.20;0.00;;;23.50;99.90;;;;;;21062678;28;20239;-71
2022/06/10 21:47:16;;;;;;;0.20;0.00;;;23.20;99.90;;;;;;21066623;28;20192;-72
2022/06/10 21:57:24;;;;;;;0.20;0.00;;;23.10;99.90;;;;;;21065421;28;20247;-72
2022/06/10 22:07:30;;;;;;;0.20;0.00;;;23.00;99.90;;;;;;21062485;28;20277;-81
2022/06/10 22:17:35;;;;;;;0.20;0.10;;;22.80;99.90;;;;;;21064141;28;20259;-77
2022/06/10 22:27:41;;;;;;;0.20;0.10;;;22.90;99.90;;;;;;21062427;28;20208;-76
2022/06/10 22:37:45;;;;;;;0.20;0.00;;;22.80;99.90;;;;;;21059666;28;20292;-77
2022/06/10 22:47:53;;;;;;;0.20;0.00;;;22.50;99.90;;;;;;21059044;28;20213;-76
2022/06/10 22:58:12;;;;;;;0.20;0.10;;;22.50;99.90;;;;;;21055387;28;20231;-76
2022/06/10 23:08:20;;;;;;;0.20;0.00;;;22.40;99.90;;;;;;21058263;28;20204;-76
2022/06/10 23:18:33;;;;;;;0.20;0.00;;;22.80;99.90;;;;;;21057624;28;20289;-76
2022/06/10 23:28:38;;;;;;;0.20;0.00;;;22.40;99.90;;;;;;21055208;28;20184;-76
2022/06/10 23:38:42;;;;;;;0.20;0.00;;;22.20;99.90;;;;;;21057087;28;20303;-76
2022/06/10 23:59:15;;;;;;;0.20;0.00;;;22.20;99.90;;;;;;21057259;28;20247;-76
